Proactive disclosure of contracts over $10,000

N.B.: The contract date represents the date that the contract is recorded in the departmental financial system.

2006-2007 - 3rd quarter

Date Vendor name Description Value
2006-09-01Contract 9F006/9F006020112 TASK 0597: MAC DONALD DETTWILER & ASSOCIATES431 - Scientific cons...49 387,10 $
2006-11-01Contract 9F010A/7003572: MCDONALD BROS. CONSTRUCTION INC421 - Architectural s...300 616,00 $
2006-11-01Contract 9F028A/7003565: DB GEOSERVICES491 - Management cons...59 934,52 $
2006-11-01Contract 9F028A/7003579: DENDRON RESOURCE SURVEYS431 - Scientific cons...131 598,55 $
2006-11-01Contract 9F017F/7003575: C.B.-Z. INC.499 - Other professio...24 994,80 $
2006-11-01Contract 9F007A/9F00760917: DALHOUSIE UNIVERSITY430 - Scientific serv...249 992,00 $
2006-12-01Contract 9F031A/7003869: GARTNER GROUP CANADA CO.472 - Information tec...42 771,00 $
2006-12-01Contract 9F012F/7003785: GROOM ET ASSOCIES813 - Temporary help ...13 435,66 $
2006-10-02Contract 9F007F/9F00760916: MPB TECHNOLOGIES INC.430 - Scientific serv...265 000,00 $
2006-10-02Contract 9F018F/7003436: SERV. GESTION QUANTUM LTEE813 - Temporary help ...17 385,70 $
2006-10-02Contract 9F010A/9F01060591: XLS SYSTEMS INC.1160 - Ferroux metals...291 355,94 $
2006-11-02Contract 9F005A/7003483: LEARNING TREE INTERNATIONAL447 - Tuition fees an...12 571,60 $
2006-11-02Contract 9F017F/7003582: RH S.POULIN CONSULTATING499 - Other professio...24 258,10 $
2006-11-03Contract 9F010A/9F01061084: DALIMAR INSTRUMENTS1243 - Measuring, cont...43 014,80 $
2006-11-03Contract 9F028A/7003588: VANTAGE POINT INTERNATIONAL INC431 - Scientific cons...53 000,00 $
2006-10-04Contract 9F008A/7003451: LYDIA DOTTO351 - Communications ...10 600,00 $
2006-11-04Contract 9F006/9F006020112 TASK 0576: MAC DONALD DETTWILER & ASSOCIATES431 - Scientific cons...1 722 901,97 $
2006-12-04Contract 9F030F/7003807: DUOCOM1223 - Matériel transm...34 987,20 $
2006-12-04Contract 9F028A/9F02861180: MAC DONALD, DETWILLER AND431 - Scientific cons...422 965,44 $
2006-12-04Contract 9F030F/7003805: POTVIN & PATENAUDE INC.658 - Electric lighti...11 236,00 $

Number of contracts: 170

N.B.: The contract date represents the date that the contract is recorded in the departmental financial system.

Change the Quarter